sensor_id;sensor_type;location;lat;lon;timestamp;P1;durP1;ratioP1;P2;durP2;ratioP2
14945;SDS011;7567;50.916;6.900;2022-08-19T00:01:23;7.90;;;7.20;;
14945;SDS011;7567;50.916;6.900;2022-08-19T00:03:50;7.50;;;6.80;;
14945;SDS011;7567;50.916;6.900;2022-08-19T00:06:16;7.95;;;7.20;;
14945;SDS011;7567;50.916;6.900;2022-08-19T00:08:42;7.45;;;6.70;;
14945;SDS011;7567;50.916;6.900;2022-08-19T00:11:08;7.28;;;6.57;;
14945;SDS011;7567;50.916;6.900;2022-08-19T00:13:34;7.38;;;6.78;;
14945;SDS011;7567;50.916;6.900;2022-08-19T00:16:00;8.02;;;7.20;;
14945;SDS011;7567;50.916;6.900;2022-08-19T00:18:27;8.45;;;7.65;;
14945;SDS011;7567;50.916;6.900;2022-08-19T00:20:53;8.05;;;7.22;;
14945;SDS011;7567;50.916;6.900;2022-08-19T00:23:19;8.00;;;7.28;;
14945;SDS011;7567;50.916;6.900;2022-08-19T00:25:45;7.57;;;6.88;;
14945;SDS011;7567;50.916;6.900;2022-08-19T00:28:10;8.63;;;7.78;;
14945;SDS011;7567;50.916;6.900;2022-08-19T00:30:36;8.35;;;7.47;;
14945;SDS011;7567;50.916;6.900;2022-08-19T00:33:02;8.20;;;7.32;;
14945;SDS011;7567;50.916;6.900;2022-08-19T00:35:28;8.63;;;7.82;;
14945;SDS011;7567;50.916;6.900;2022-08-19T00:37:54;8.48;;;7.45;;
14945;SDS011;7567;50.916;6.900;2022-08-19T00:40:21;8.15;;;7.32;;
14945;SDS011;7567;50.916;6.900;2022-08-19T00:42:47;8.13;;;7.45;;
14945;SDS011;7567;50.916;6.900;2022-08-19T00:45:20;8.50;;;7.28;;
14945;SDS011;7567;50.916;6.900;2022-08-19T00:47:47;9.52;;;8.10;;
14945;SDS011;7567;50.916;6.900;2022-08-19T00:50:15;9.75;;;8.30;;
14945;SDS011;7567;50.916;6.900;2022-08-19T00:52:44;8.10;;;7.35;;
14945;SDS011;7567;50.916;6.900;2022-08-19T00:55:22;8.70;;;7.90;;
14945;SDS011;7567;50.916;6.900;2022-08-19T00:57:55;9.77;;;8.80;;
14945;SDS011;7567;50.916;6.900;2022-08-19T01:00:25;12.32;;;8.10;;
14945;SDS011;7567;50.916;6.900;2022-08-19T01:02:52;9.25;;;8.27;;
14945;SDS011;7567;50.916;6.900;2022-08-19T01:05:20;10.88;;;8.25;;
14945;SDS011;7567;50.916;6.900;2022-08-19T01:07:49;9.90;;;9.00;;
14945;SDS011;7567;50.916;6.900;2022-08-19T01:10:17;10.05;;;8.95;;
14945;SDS011;7567;50.916;6.900;2022-08-19T01:12:46;10.52;;;9.25;;
14945;SDS011;7567;50.916;6.900;2022-08-19T01:15:14;9.38;;;8.48;;
14945;SDS011;7567;50.916;6.900;2022-08-19T01:17:42;11.52;;;9.95;;
14945;SDS011;7567;50.916;6.900;2022-08-19T01:20:10;11.50;;;9.73;;
14945;SDS011;7567;50.916;6.900;2022-08-19T01:22:41;10.52;;;9.43;;
14945;SDS011;7567;50.916;6.900;2022-08-19T01:25:14;11.38;;;9.85;;
14945;SDS011;7567;50.916;6.900;2022-08-19T01:27:44;10.80;;;9.68;;
14945;SDS011;7567;50.916;6.900;2022-08-19T01:30:13;11.07;;;9.90;;
14945;SDS011;7567;50.916;6.900;2022-08-19T01:32:41;11.50;;;10.23;;
14945;SDS011;7567;50.916;6.900;2022-08-19T01:35:09;10.63;;;9.57;;
14945;SDS011;7567;50.916;6.900;2022-08-19T01:37:47;13.38;;;10.45;;
14945;SDS011;7567;50.916;6.900;2022-08-19T01:40:19;12.73;;;9.85;;
14945;SDS011;7567;50.916;6.900;2022-08-19T01:42:49;14.98;;;10.88;;
14945;SDS011;7567;50.916;6.900;2022-08-19T01:45:17;15.20;;;11.25;;
14945;SDS011;7567;50.916;6.900;2022-08-19T01:47:44;14.45;;;10.60;;
14945;SDS011;7567;50.916;6.900;2022-08-19T01:50:10;12.55;;;10.82;;
14945;SDS011;7567;50.916;6.900;2022-08-19T01:52:38;13.35;;;10.68;;
14945;SDS011;7567;50.916;6.900;2022-08-19T01:55:06;12.65;;;10.75;;
14945;SDS011;7567;50.916;6.900;2022-08-19T01:57:33;11.32;;;10.23;;
14945;SDS011;7567;50.916;6.900;2022-08-19T01:59:59;12.07;;;10.07;;
14945;SDS011;7567;50.916;6.900;2022-08-19T02:02:27;15.18;;;11.48;;
14945;SDS011;7567;50.916;6.900;2022-08-19T02:04:53;12.05;;;10.82;;
14945;SDS011;7567;50.916;6.900;2022-08-19T02:07:19;11.57;;;10.45;;
14945;SDS011;7567;50.916;6.900;2022-08-19T02:09:46;13.80;;;10.57;;
14945;SDS011;7567;50.916;6.900;2022-08-19T02:12:13;13.98;;;10.43;;
14945;SDS011;7567;50.916;6.900;2022-08-19T02:14:41;12.00;;;10.75;;
14945;SDS011;7567;50.916;6.900;2022-08-19T02:17:07;13.63;;;11.10;;
14945;SDS011;7567;50.916;6.900;2022-08-19T02:19:33;14.50;;;11.75;;
14945;SDS011;7567;50.916;6.900;2022-08-19T02:21:59;13.43;;;10.63;;
14945;SDS011;7567;50.916;6.900;2022-08-19T02:24:26;12.98;;;11.57;;
14945;SDS011;7567;50.916;6.900;2022-08-19T02:26:52;11.90;;;10.35;;
14945;SDS011;7567;50.916;6.900;2022-08-19T02:29:18;12.50;;;11.25;;
14945;SDS011;7567;50.916;6.900;2022-08-19T02:31:44;13.75;;;12.07;;
14945;SDS011;7567;50.916;6.900;2022-08-19T02:34:10;12.40;;;11.25;;
14945;SDS011;7567;50.916;6.900;2022-08-19T02:36:36;14.98;;;11.52;;
14945;SDS011;7567;50.916;6.900;2022-08-19T02:39:02;13.35;;;11.52;;
14945;SDS011;7567;50.916;6.900;2022-08-19T02:41:29;13.48;;;11.90;;
14945;SDS011;7567;50.916;6.900;2022-08-19T02:43:57;14.48;;;11.10;;
14945;SDS011;7567;50.916;6.900;2022-08-19T02:46:26;13.52;;;11.05;;
14945;SDS011;7567;50.916;6.900;2022-08-19T02:48:59;14.20;;;11.75;;
14945;SDS011;7567;50.916;6.900;2022-08-19T02:51:34;12.82;;;11.52;;
14945;SDS011;7567;50.916;6.900;2022-08-19T02:54:03;12.07;;;10.82;;
14945;SDS011;7567;50.916;6.900;2022-08-19T02:56:29;12.95;;;11.48;;
14945;SDS011;7567;50.916;6.900;2022-08-19T02:58:56;14.55;;;10.88;;
14945;SDS011;7567;50.916;6.900;2022-08-19T03:03:49;15.65;;;11.73;;
14945;SDS011;7567;50.916;6.900;2022-08-19T03:06:16;14.65;;;12.13;;
14945;SDS011;7567;50.916;6.900;2022-08-19T03:08:43;13.15;;;11.95;;
14945;SDS011;7567;50.916;6.900;2022-08-19T03:11:18;14.43;;;12.23;;
14945;SDS011;7567;50.916;6.900;2022-08-19T03:13:45;13.57;;;12.18;;
14945;SDS011;7567;50.916;6.900;2022-08-19T03:16:14;13.45;;;12.10;;
14945;SDS011;7567;50.916;6.900;2022-08-19T03:18:40;14.38;;;12.55;;
14945;SDS011;7567;50.916;6.900;2022-08-19T03:21:06;14.90;;;11.63;;
14945;SDS011;7567;50.916;6.900;2022-08-19T03:23:32;13.23;;;11.93;;
14945;SDS011;7567;50.916;6.900;2022-08-19T03:25:58;15.02;;;12.68;;
14945;SDS011;7567;50.916;6.900;2022-08-19T03:28:24;13.20;;;11.98;;
14945;SDS011;7567;50.916;6.900;2022-08-19T03:31:00;13.45;;;12.15;;
14945;SDS011;7567;50.916;6.900;2022-08-19T03:33:31;14.75;;;13.10;;
14945;SDS011;7567;50.916;6.900;2022-08-19T03:36:09;14.80;;;11.90;;
14945;SDS011;7567;50.916;6.900;2022-08-19T03:38:36;13.40;;;12.10;;
14945;SDS011;7567;50.916;6.900;2022-08-19T03:41:04;15.02;;;13.18;;
14945;SDS011;7567;50.916;6.900;2022-08-19T03:43:36;12.65;;;11.43;;
14945;SDS011;7567;50.916;6.900;2022-08-19T03:46:13;13.90;;;12.60;;
14945;SDS011;7567;50.916;6.900;2022-08-19T03:48:42;13.88;;;12.45;;
14945;SDS011;7567;50.916;6.900;2022-08-19T03:51:15;14.45;;;13.00;;
14945;SDS011;7567;50.916;6.900;2022-08-19T03:53:46;14.57;;;13.20;;
14945;SDS011;7567;50.916;6.900;2022-08-19T03:56:13;14.32;;;13.02;;
14945;SDS011;7567;50.916;6.900;2022-08-19T03:58:40;15.77;;;12.65;;
14945;SDS011;7567;50.916;6.900;2022-08-19T04:01:13;14.60;;;13.20;;
14945;SDS011;7567;50.916;6.900;2022-08-19T04:03:42;14.00;;;12.55;;
14945;SDS011;7567;50.916;6.900;2022-08-19T04:08:46;14.00;;;12.57;;
14945;SDS011;7567;50.916;6.900;2022-08-19T04:11:15;14.77;;;12.85;;
14945;SDS011;7567;50.916;6.900;2022-08-19T04:13:44;13.88;;;12.65;;
14945;SDS011;7567;50.916;6.900;2022-08-19T04:16:10;13.82;;;12.52;;
14945;SDS011;7567;50.916;6.900;2022-08-19T04:18:37;13.45;;;12.30;;
14945;SDS011;7567;50.916;6.900;2022-08-19T04:21:03;14.05;;;12.65;;
14945;SDS011;7567;50.916;6.900;2022-08-19T04:23:30;14.77;;;13.38;;
14945;SDS011;7567;50.916;6.900;2022-08-19T04:25:57;13.82;;;12.52;;
14945;SDS011;7567;50.916;6.900;2022-08-19T04:28:23;13.68;;;12.45;;
14945;SDS011;7567;50.916;6.900;2022-08-19T04:30:50;14.55;;;13.15;;
14945;SDS011;7567;50.916;6.900;2022-08-19T04:33:18;15.13;;;13.60;;
14945;SDS011;7567;50.916;6.900;2022-08-19T04:35:48;14.13;;;12.77;;
14945;SDS011;7567;50.916;6.900;2022-08-19T04:38:16;14.55;;;12.52;;
14945;SDS011;7567;50.916;6.900;2022-08-19T04:40:48;14.55;;;13.13;;
14945;SDS011;7567;50.916;6.900;2022-08-19T04:43:34;14.18;;;12.77;;
14945;SDS011;7567;50.916;6.900;2022-08-19T04:46:06;14.60;;;13.30;;
14945;SDS011;7567;50.916;6.900;2022-08-19T04:48:35;18.65;;;13.50;;
14945;SDS011;7567;50.916;6.900;2022-08-19T04:51:05;14.98;;;13.75;;
14945;SDS011;7567;50.916;6.900;2022-08-19T04:53:35;14.50;;;13.27;;
14945;SDS011;7567;50.916;6.900;2022-08-19T04:56:10;15.38;;;14.05;;
14945;SDS011;7567;50.916;6.900;2022-08-19T04:58:39;14.85;;;13.45;;
14945;SDS011;7567;50.916;6.900;2022-08-19T05:01:11;17.08;;;13.00;;
14945;SDS011;7567;50.916;6.900;2022-08-19T05:03:38;15.27;;;14.07;;
14945;SDS011;7567;50.916;6.900;2022-08-19T05:06:08;16.50;;;15.00;;
14945;SDS011;7567;50.916;6.900;2022-08-19T05:08:37;16.17;;;14.48;;
14945;SDS011;7567;50.916;6.900;2022-08-19T05:11:17;17.05;;;15.35;;
14945;SDS011;7567;50.916;6.900;2022-08-19T05:13:45;16.50;;;14.98;;
14945;SDS011;7567;50.916;6.900;2022-08-19T05:16:14;17.15;;;15.57;;
14945;SDS011;7567;50.916;6.900;2022-08-19T05:18:41;16.05;;;14.70;;
14945;SDS011;7567;50.916;6.900;2022-08-19T05:21:25;17.38;;;15.73;;
14945;SDS011;7567;50.916;6.900;2022-08-19T05:24:11;17.13;;;15.55;;
14945;SDS011;7567;50.916;6.900;2022-08-19T05:26:42;17.90;;;16.30;;
14945;SDS011;7567;50.916;6.900;2022-08-19T05:29:11;17.98;;;16.20;;
14945;SDS011;7567;50.916;6.900;2022-08-19T05:31:39;37.08;;;33.45;;
14945;SDS011;7567;50.916;6.900;2022-08-19T05:34:05;33.05;;;29.92;;
14945;SDS011;7567;50.916;6.900;2022-08-19T05:36:36;32.03;;;28.95;;
14945;SDS011;7567;50.916;6.900;2022-08-19T05:39:08;33.92;;;30.60;;
14945;SDS011;7567;50.916;6.900;2022-08-19T05:41:40;33.72;;;30.42;;
14945;SDS011;7567;50.916;6.900;2022-08-19T05:44:28;40.25;;;36.45;;
14945;SDS011;7567;50.916;6.900;2022-08-19T05:46:56;36.40;;;33.20;;
14945;SDS011;7567;50.916;6.900;2022-08-19T05:49:23;35.92;;;32.17;;
14945;SDS011;7567;50.916;6.900;2022-08-19T05:51:50;35.80;;;32.63;;
14945;SDS011;7567;50.916;6.900;2022-08-19T05:54:17;36.00;;;33.03;;
14945;SDS011;7567;50.916;6.900;2022-08-19T05:56:44;38.05;;;34.42;;
14945;SDS011;7567;50.916;6.900;2022-08-19T05:59:13;36.75;;;33.40;;
14945;SDS011;7567;50.916;6.900;2022-08-19T06:01:40;33.60;;;30.67;;
14945;SDS011;7567;50.916;6.900;2022-08-19T06:04:07;35.97;;;32.67;;
14945;SDS011;7567;50.916;6.900;2022-08-19T06:06:34;33.35;;;30.33;;
14945;SDS011;7567;50.916;6.900;2022-08-19T06:09:01;34.05;;;30.88;;
14945;SDS011;7567;50.916;6.900;2022-08-19T06:11:39;38.40;;;34.75;;
14945;SDS011;7567;50.916;6.900;2022-08-19T06:14:11;37.47;;;33.80;;
14945;SDS011;7567;50.916;6.900;2022-08-19T06:16:40;34.55;;;31.42;;
14945;SDS011;7567;50.916;6.900;2022-08-19T06:19:09;41.50;;;37.60;;
14945;SDS011;7567;50.916;6.900;2022-08-19T06:21:41;37.38;;;33.83;;
14945;SDS011;7567;50.916;6.900;2022-08-19T06:24:10;38.35;;;34.75;;
14945;SDS011;7567;50.916;6.900;2022-08-19T06:26:38;41.35;;;36.90;;
14945;SDS011;7567;50.916;6.900;2022-08-19T06:29:07;36.53;;;33.05;;
14945;SDS011;7567;50.916;6.900;2022-08-19T06:31:34;36.60;;;33.45;;
14945;SDS011;7567;50.916;6.900;2022-08-19T06:34:02;38.53;;;34.65;;
14945;SDS011;7567;50.916;6.900;2022-08-19T06:36:34;38.70;;;34.92;;
14945;SDS011;7567;50.916;6.900;2022-08-19T06:39:03;37.75;;;34.38;;
14945;SDS011;7567;50.916;6.900;2022-08-19T06:41:30;36.33;;;33.08;;
14945;SDS011;7567;50.916;6.900;2022-08-19T06:43:59;38.08;;;34.50;;
14945;SDS011;7567;50.916;6.900;2022-08-19T06:46:25;37.70;;;34.08;;
14945;SDS011;7567;50.916;6.900;2022-08-19T06:48:51;37.42;;;33.95;;
14945;SDS011;7567;50.916;6.900;2022-08-19T06:51:18;34.88;;;31.70;;
14945;SDS011;7567;50.916;6.900;2022-08-19T06:53:47;35.83;;;32.72;;
14945;SDS011;7567;50.916;6.900;2022-08-19T06:56:18;39.20;;;35.03;;
14945;SDS011;7567;50.916;6.900;2022-08-19T06:58:47;34.95;;;31.65;;
14945;SDS011;7567;50.916;6.900;2022-08-19T07:01:16;36.92;;;33.58;;
14945;SDS011;7567;50.916;6.900;2022-08-19T07:03:42;33.80;;;30.60;;
14945;SDS011;7567;50.916;6.900;2022-08-19T07:06:10;35.20;;;31.92;;
14945;SDS011;7567;50.916;6.900;2022-08-19T07:08:39;38.25;;;34.22;;
14945;SDS011;7567;50.916;6.900;2022-08-19T07:11:11;36.90;;;33.08;;
14945;SDS011;7567;50.916;6.900;2022-08-19T07:13:38;37.33;;;32.15;;
14945;SDS011;7567;50.916;6.900;2022-08-19T07:18:41;34.00;;;30.83;;
14945;SDS011;7567;50.916;6.900;2022-08-19T07:21:11;33.65;;;30.45;;
14945;SDS011;7567;50.916;6.900;2022-08-19T07:23:40;36.13;;;32.50;;
14945;SDS011;7567;50.916;6.900;2022-08-19T07:26:14;33.42;;;30.27;;
14945;SDS011;7567;50.916;6.900;2022-08-19T07:28:42;35.88;;;32.38;;
14945;SDS011;7567;50.916;6.900;2022-08-19T07:31:13;34.17;;;30.55;;
14945;SDS011;7567;50.916;6.900;2022-08-19T07:33:43;35.13;;;31.52;;
14945;SDS011;7567;50.916;6.900;2022-08-19T07:36:10;37.35;;;33.40;;
14945;SDS011;7567;50.916;6.900;2022-08-19T07:38:38;39.50;;;35.38;;
14945;SDS011;7567;50.916;6.900;2022-08-19T07:41:06;37.95;;;34.22;;
14945;SDS011;7567;50.916;6.900;2022-08-19T07:43:33;40.40;;;36.50;;
14945;SDS011;7567;50.916;6.900;2022-08-19T07:45:59;43.67;;;39.47;;
14945;SDS011;7567;50.916;6.900;2022-08-19T07:48:26;41.53;;;37.35;;
14945;SDS011;7567;50.916;6.900;2022-08-19T07:50:53;44.15;;;39.53;;
14945;SDS011;7567;50.916;6.900;2022-08-19T07:53:21;44.53;;;39.70;;
14945;SDS011;7567;50.916;6.900;2022-08-19T07:55:47;44.85;;;40.17;;
14945;SDS011;7567;50.916;6.900;2022-08-19T07:58:15;43.95;;;39.67;;
14945;SDS011;7567;50.916;6.900;2022-08-19T08:00:44;46.40;;;41.80;;
14945;SDS011;7567;50.916;6.900;2022-08-19T08:03:11;47.90;;;43.13;;
14945;SDS011;7567;50.916;6.900;2022-08-19T08:05:38;45.97;;;41.58;;
14945;SDS011;7567;50.916;6.900;2022-08-19T08:08:23;43.92;;;39.47;;
14945;SDS011;7567;50.916;6.900;2022-08-19T08:11:18;45.95;;;41.15;;
14945;SDS011;7567;50.916;6.900;2022-08-19T08:13:45;44.75;;;40.25;;
14945;SDS011;7567;50.916;6.900;2022-08-19T08:16:10;51.22;;;43.05;;
14945;SDS011;7567;50.916;6.900;2022-08-19T08:18:36;46.00;;;40.55;;
14945;SDS011;7567;50.916;6.900;2022-08-19T08:21:06;45.78;;;41.33;;
14945;SDS011;7567;50.916;6.900;2022-08-19T08:23:35;46.55;;;38.67;;
14945;SDS011;7567;50.916;6.900;2022-08-19T08:26:01;51.60;;;44.13;;
14945;SDS011;7567;50.916;6.900;2022-08-19T08:28:27;46.67;;;41.55;;
14945;SDS011;7567;50.916;6.900;2022-08-19T08:30:54;43.28;;;38.63;;
14945;SDS011;7567;50.916;6.900;2022-08-19T08:33:22;41.55;;;37.28;;
14945;SDS011;7567;50.916;6.900;2022-08-19T08:36:07;43.05;;;37.03;;
14945;SDS011;7567;50.916;6.900;2022-08-19T08:44:15;49.22;;;44.00;;
14945;SDS011;7567;50.916;6.900;2022-08-19T08:46:49;49.55;;;44.22;;
14945;SDS011;7567;50.916;6.900;2022-08-19T08:49:24;47.83;;;42.83;;
14945;SDS011;7567;50.916;6.900;2022-08-19T08:52:08;47.85;;;42.83;;
14945;SDS011;7567;50.916;6.900;2022-08-19T08:54:42;49.35;;;42.25;;
14945;SDS011;7567;50.916;6.900;2022-08-19T08:57:13;48.70;;;43.78;;
14945;SDS011;7567;50.916;6.900;2022-08-19T08:59:43;43.97;;;39.50;;
14945;SDS011;7567;50.916;6.900;2022-08-19T09:02:15;45.55;;;40.03;;
14945;SDS011;7567;50.916;6.900;2022-08-19T09:04:42;45.92;;;41.22;;
14945;SDS011;7567;50.916;6.900;2022-08-19T09:10:29;44.10;;;39.55;;
14945;SDS011;7567;50.916;6.900;2022-08-19T09:15:33;39.03;;;34.42;;
14945;SDS011;7567;50.916;6.900;2022-08-19T09:18:04;35.92;;;32.25;;
14945;SDS011;7567;50.916;6.900;2022-08-19T09:20:31;28.73;;;25.85;;
14945;SDS011;7567;50.916;6.900;2022-08-19T09:22:58;29.73;;;26.77;;
14945;SDS011;7567;50.916;6.900;2022-08-19T09:25:24;31.92;;;28.50;;
14945;SDS011;7567;50.916;6.900;2022-08-19T09:27:51;26.23;;;23.73;;
14945;SDS011;7567;50.916;6.900;2022-08-19T09:30:25;23.27;;;20.80;;
14945;SDS011;7567;50.916;6.900;2022-08-19T09:32:53;23.50;;;21.17;;
14945;SDS011;7567;50.916;6.900;2022-08-19T09:35:21;27.55;;;24.75;;
14945;SDS011;7567;50.916;6.900;2022-08-19T09:37:48;24.95;;;22.63;;
14945;SDS011;7567;50.916;6.900;2022-08-19T09:40:15;20.92;;;18.90;;
14945;SDS011;7567;50.916;6.900;2022-08-19T09:42:42;23.80;;;21.50;;
14945;SDS011;7567;50.916;6.900;2022-08-19T09:45:09;22.45;;;20.35;;
14945;SDS011;7567;50.916;6.900;2022-08-19T09:47:36;22.67;;;20.27;;
14945;SDS011;7567;50.916;6.900;2022-08-19T09:50:04;23.42;;;21.02;;
14945;SDS011;7567;50.916;6.900;2022-08-19T09:52:31;24.35;;;22.08;;
14945;SDS011;7567;50.916;6.900;2022-08-19T09:54:58;26.63;;;23.92;;
14945;SDS011;7567;50.916;6.900;2022-08-19T09:57:24;24.58;;;22.25;;
14945;SDS011;7567;50.916;6.900;2022-08-19T09:59:50;25.42;;;23.02;;
14945;SDS011;7567;50.916;6.900;2022-08-19T10:02:15;22.50;;;20.38;;
14945;SDS011;7567;50.916;6.900;2022-08-19T10:04:41;20.15;;;18.42;;
14945;SDS011;7567;50.916;6.900;2022-08-19T10:07:25;17.92;;;16.20;;
14945;SDS011;7567;50.916;6.900;2022-08-19T10:09:57;18.75;;;17.00;;
14945;SDS011;7567;50.916;6.900;2022-08-19T10:12:23;17.33;;;15.52;;
14945;SDS011;7567;50.916;6.900;2022-08-19T10:14:49;16.10;;;14.60;;
14945;SDS011;7567;50.916;6.900;2022-08-19T10:17:16;15.02;;;13.55;;
14945;SDS011;7567;50.916;6.900;2022-08-19T10:19:42;17.10;;;14.32;;
14945;SDS011;7567;50.916;6.900;2022-08-19T10:22:08;17.77;;;16.17;;
14945;SDS011;7567;50.916;6.900;2022-08-19T10:24:39;12.55;;;11.35;;
14945;SDS011;7567;50.916;6.900;2022-08-19T10:27:06;14.52;;;12.43;;
14945;SDS011;7567;50.916;6.900;2022-08-19T10:29:32;17.02;;;13.43;;
14945;SDS011;7567;50.916;6.900;2022-08-19T10:32:08;13.90;;;12.65;;
14945;SDS011;7567;50.916;6.900;2022-08-19T10:34:35;16.10;;;13.77;;
14945;SDS011;7567;50.916;6.900;2022-08-19T10:37:03;13.00;;;11.70;;
14945;SDS011;7567;50.916;6.900;2022-08-19T10:39:34;11.48;;;10.38;;
14945;SDS011;7567;50.916;6.900;2022-08-19T10:42:05;16.45;;;12.75;;
14945;SDS011;7567;50.916;6.900;2022-08-19T10:44:32;13.23;;;10.88;;
14945;SDS011;7567;50.916;6.900;2022-08-19T10:47:00;14.10;;;11.98;;
14945;SDS011;7567;50.916;6.900;2022-08-19T10:49:27;14.30;;;13.00;;
14945;SDS011;7567;50.916;6.900;2022-08-19T10:51:53;13.85;;;12.48;;
14945;SDS011;7567;50.916;6.900;2022-08-19T10:54:38;13.63;;;12.43;;
14945;SDS011;7567;50.916;6.900;2022-08-19T10:57:22;18.40;;;15.80;;
14945;SDS011;7567;50.916;6.900;2022-08-19T10:59:54;22.00;;;19.30;;
14945;SDS011;7567;50.916;6.900;2022-08-19T11:02:20;20.65;;;18.60;;
14945;SDS011;7567;50.916;6.900;2022-08-19T11:04:47;22.48;;;20.15;;
14945;SDS011;7567;50.916;6.900;2022-08-19T11:07:15;20.50;;;18.48;;
14945;SDS011;7567;50.916;6.900;2022-08-19T11:09:42;17.25;;;15.57;;
14945;SDS011;7567;50.916;6.900;2022-08-19T11:12:09;16.67;;;15.07;;
14945;SDS011;7567;50.916;6.900;2022-08-19T11:14:37;15.60;;;13.85;;
14945;SDS011;7567;50.916;6.900;2022-08-19T11:17:03;14.40;;;13.10;;
14945;SDS011;7567;50.916;6.900;2022-08-19T11:19:30;15.40;;;13.88;;
14945;SDS011;7567;50.916;6.900;2022-08-19T11:21:57;12.38;;;10.50;;
14945;SDS011;7567;50.916;6.900;2022-08-19T11:24:27;11.85;;;10.57;;
14945;SDS011;7567;50.916;6.900;2022-08-19T11:26:54;11.15;;;10.15;;
14945;SDS011;7567;50.916;6.900;2022-08-19T11:29:25;14.18;;;11.07;;
14945;SDS011;7567;50.916;6.900;2022-08-19T11:31:52;12.85;;;11.65;;
14945;SDS011;7567;50.916;6.900;2022-08-19T11:34:20;13.73;;;12.13;;
14945;SDS011;7567;50.916;6.900;2022-08-19T11:36:47;13.32;;;11.50;;
14945;SDS011;7567;50.916;6.900;2022-08-19T11:39:16;13.15;;;12.05;;
14945;SDS011;7567;50.916;6.900;2022-08-19T11:41:43;14.10;;;12.65;;
14945;SDS011;7567;50.916;6.900;2022-08-19T11:44:09;12.95;;;10.98;;
14945;SDS011;7567;50.916;6.900;2022-08-19T11:46:35;12.05;;;10.73;;
14945;SDS011;7567;50.916;6.900;2022-08-19T11:49:02;13.52;;;12.23;;
14945;SDS011;7567;50.916;6.900;2022-08-19T11:51:30;11.93;;;10.63;;
14945;SDS011;7567;50.916;6.900;2022-08-19T11:53:57;14.23;;;11.88;;
14945;SDS011;7567;50.916;6.900;2022-08-19T11:56:24;29.75;;;16.55;;
14945;SDS011;7567;50.916;6.900;2022-08-19T11:58:51;13.05;;;11.45;;
14945;SDS011;7567;50.916;6.900;2022-08-19T12:01:19;11.98;;;10.43;;
14945;SDS011;7567;50.916;6.900;2022-08-19T12:03:46;12.23;;;10.77;;
14945;SDS011;7567;50.916;6.900;2022-08-19T12:06:18;10.60;;;9.50;;
14945;SDS011;7567;50.916;6.900;2022-08-19T12:08:49;9.32;;;8.43;;
14945;SDS011;7567;50.916;6.900;2022-08-19T12:11:14;12.85;;;9.50;;
14945;SDS011;7567;50.916;6.900;2022-08-19T12:13:40;11.43;;;10.23;;
14945;SDS011;7567;50.916;6.900;2022-08-19T12:16:26;10.20;;;9.30;;
14945;SDS011;7567;50.916;6.900;2022-08-19T12:18:54;15.18;;;9.98;;
14945;SDS011;7567;50.916;6.900;2022-08-19T12:21:22;9.57;;;8.63;;
14945;SDS011;7567;50.916;6.900;2022-08-19T12:23:50;9.85;;;7.80;;
14945;SDS011;7567;50.916;6.900;2022-08-19T12:26:16;7.90;;;7.20;;
14945;SDS011;7567;50.916;6.900;2022-08-19T12:28:43;8.93;;;8.10;;
14945;SDS011;7567;50.916;6.900;2022-08-19T12:31:10;11.80;;;9.25;;
14945;SDS011;7567;50.916;6.900;2022-08-19T12:33:39;9.68;;;8.80;;
14945;SDS011;7567;50.916;6.900;2022-08-19T12:36:06;13.07;;;10.25;;
14945;SDS011;7567;50.916;6.900;2022-08-19T12:38:35;11.65;;;9.68;;
14945;SDS011;7567;50.916;6.900;2022-08-19T12:41:01;10.13;;;9.10;;
14945;SDS011;7567;50.916;6.900;2022-08-19T12:43:32;11.30;;;10.30;;
14945;SDS011;7567;50.916;6.900;2022-08-19T12:45:59;11.43;;;9.88;;
14945;SDS011;7567;50.916;6.900;2022-08-19T12:48:25;10.88;;;8.93;;
14945;SDS011;7567;50.916;6.900;2022-08-19T12:50:51;9.95;;;8.90;;
14945;SDS011;7567;50.916;6.900;2022-08-19T12:53:17;13.57;;;10.60;;
14945;SDS011;7567;50.916;6.900;2022-08-19T12:55:42;10.80;;;9.80;;
14945;SDS011;7567;50.916;6.900;2022-08-19T12:58:09;12.38;;;9.05;;
14945;SDS011;7567;50.916;6.900;2022-08-19T13:00:37;12.07;;;9.77;;
14945;SDS011;7567;50.916;6.900;2022-08-19T13:03:03;14.05;;;9.63;;
14945;SDS011;7567;50.916;6.900;2022-08-19T13:05:29;9.55;;;8.60;;
14945;SDS011;7567;50.916;6.900;2022-08-19T13:07:57;10.70;;;9.73;;
14945;SDS011;7567;50.916;6.900;2022-08-19T13:10:27;9.57;;;8.65;;
14945;SDS011;7567;50.916;6.900;2022-08-19T13:13:04;9.27;;;8.38;;
14945;SDS011;7567;50.916;6.900;2022-08-19T13:15:35;8.45;;;7.65;;
14945;SDS011;7567;50.916;6.900;2022-08-19T13:18:04;9.60;;;7.65;;
14945;SDS011;7567;50.916;6.900;2022-08-19T13:20:30;9.48;;;8.55;;
14945;SDS011;7567;50.916;6.900;2022-08-19T13:22:56;8.65;;;7.93;;
14945;SDS011;7567;50.916;6.900;2022-08-19T13:25:22;18.02;;;8.63;;
14945;SDS011;7567;50.916;6.900;2022-08-19T13:27:48;10.25;;;8.57;;
14945;SDS011;7567;50.916;6.900;2022-08-19T13:30:16;11.70;;;8.00;;
14945;SDS011;7567;50.916;6.900;2022-08-19T13:33:01;8.63;;;7.47;;
14945;SDS011;7567;50.916;6.900;2022-08-19T13:35:44;11.70;;;8.30;;
14945;SDS011;7567;50.916;6.900;2022-08-19T13:38:10;8.10;;;7.40;;
14945;SDS011;7567;50.916;6.900;2022-08-19T13:40:36;8.48;;;7.75;;
14945;SDS011;7567;50.916;6.900;2022-08-19T13:43:03;12.10;;;8.38;;
14945;SDS011;7567;50.916;6.900;2022-08-19T13:45:30;10.20;;;8.05;;
14945;SDS011;7567;50.916;6.900;2022-08-19T13:48:00;9.25;;;8.35;;
14945;SDS011;7567;50.916;6.900;2022-08-19T13:50:33;10.07;;;8.55;;
14945;SDS011;7567;50.916;6.900;2022-08-19T13:53:03;8.85;;;7.88;;
14945;SDS011;7567;50.916;6.900;2022-08-19T13:55:29;7.90;;;6.68;;
14945;SDS011;7567;50.916;6.900;2022-08-19T13:57:56;10.07;;;8.95;;
14945;SDS011;7567;50.916;6.900;2022-08-19T14:00:25;14.05;;;7.88;;
14945;SDS011;7567;50.916;6.900;2022-08-19T14:02:54;8.48;;;6.72;;
14945;SDS011;7567;50.916;6.900;2022-08-19T14:05:21;8.10;;;7.18;;
14945;SDS011;7567;50.916;6.900;2022-08-19T14:07:47;7.72;;;6.45;;
14945;SDS011;7567;50.916;6.900;2022-08-19T14:10:13;8.40;;;7.00;;
14945;SDS011;7567;50.916;6.900;2022-08-19T14:12:39;9.43;;;7.10;;
14945;SDS011;7567;50.916;6.900;2022-08-19T14:15:07;7.50;;;6.78;;
14945;SDS011;7567;50.916;6.900;2022-08-19T14:17:34;14.25;;;6.68;;
14945;SDS011;7567;50.916;6.900;2022-08-19T14:20:06;9.05;;;7.43;;
14945;SDS011;7567;50.916;6.900;2022-08-19T14:22:35;12.90;;;8.13;;
14945;SDS011;7567;50.916;6.900;2022-08-19T14:25:02;12.05;;;7.80;;
14945;SDS011;7567;50.916;6.900;2022-08-19T14:27:30;9.68;;;7.25;;
14945;SDS011;7567;50.916;6.900;2022-08-19T14:29:58;10.50;;;6.72;;
14945;SDS011;7567;50.916;6.900;2022-08-19T14:32:24;8.05;;;6.35;;
14945;SDS011;7567;50.916;6.900;2022-08-19T14:34:52;8.65;;;7.20;;
14945;SDS011;7567;50.916;6.900;2022-08-19T14:37:19;8.63;;;6.50;;
14945;SDS011;7567;50.916;6.900;2022-08-19T14:39:47;7.55;;;6.85;;
14945;SDS011;7567;50.916;6.900;2022-08-19T14:42:13;6.22;;;5.57;;
14945;SDS011;7567;50.916;6.900;2022-08-19T14:44:40;7.32;;;6.57;;
14945;SDS011;7567;50.916;6.900;2022-08-19T14:47:06;5.43;;;4.93;;
14945;SDS011;7567;50.916;6.900;2022-08-19T14:49:32;12.57;;;4.97;;
14945;SDS011;7567;50.916;6.900;2022-08-19T14:51:59;7.70;;;4.10;;
14945;SDS011;7567;50.916;6.900;2022-08-19T14:54:25;8.68;;;5.15;;
14945;SDS011;7567;50.916;6.900;2022-08-19T14:56:51;8.18;;;4.47;;
14945;SDS011;7567;50.916;6.900;2022-08-19T14:59:17;9.18;;;4.80;;
14945;SDS011;7567;50.916;6.900;2022-08-19T15:01:43;4.57;;;4.13;;
14945;SDS011;7567;50.916;6.900;2022-08-19T15:04:09;11.10;;;4.60;;
14945;SDS011;7567;50.916;6.900;2022-08-19T15:06:35;7.97;;;4.00;;
14945;SDS011;7567;50.916;6.900;2022-08-19T15:09:02;7.00;;;4.22;;